createdAt,value
2018-06-15T00:00:11.103Z,81.46
2018-06-15T00:00:51.501Z,81.65
2018-06-15T00:01:31.930Z,81.65
2018-06-15T00:02:12.350Z,82.04
2018-06-15T00:02:52.768Z,81.81
2018-06-15T00:03:33.189Z,81.84
2018-06-15T00:04:13.621Z,81.9
2018-06-15T00:04:53.985Z,81.84
2018-06-15T00:05:34.401Z,82.04
2018-06-15T00:06:14.842Z,81.94
2018-06-15T00:06:55.234Z,81.99
2018-06-15T00:07:35.635Z,81.84
2018-06-15T00:08:16.028Z,81.81
2018-06-15T00:08:56.432Z,82.29
2018-06-15T00:09:36.789Z,81.9
2018-06-15T00:10:17.242Z,82.38
2018-06-15T00:10:57.609Z,82.86
2018-06-15T00:11:38.052Z,82.96
2018-06-15T00:12:18.430Z,82.76
2018-06-15T00:12:58.845Z,83.15
2018-06-15T00:13:39.295Z,83.06
2018-06-15T00:14:19.684Z,83.34
2018-06-15T00:15:00.082Z,83.73
2018-06-15T00:15:40.453Z,84.59
2018-06-15T00:16:20.855Z,83.97
2018-06-15T00:17:01.286Z,83.97
2018-06-15T00:17:41.684Z,83.97
2018-06-15T00:18:22.095Z,83.87
2018-06-15T00:19:02.493Z,84.45
2018-06-15T00:19:42.928Z,84.64
2018-06-15T00:20:23.344Z,84.84
2018-06-15T00:21:03.674Z,84.74
2018-06-15T00:21:44.080Z,84.94
2018-06-15T00:22:24.524Z,85.61
2018-06-15T00:23:04.942Z,85.13
2018-06-15T00:23:45.367Z,85.8
2018-06-15T00:24:25.752Z,85.89
2018-06-15T00:25:06.126Z,85.8
2018-06-15T00:25:46.515Z,85.8
2018-06-15T00:26:26.947Z,85.61
2018-06-15T00:27:07.298Z,85.99
2018-06-15T00:27:47.725Z,85.99
2018-06-15T00:28:28.094Z,85.71
2018-06-15T00:29:08.556Z,85.8
2018-06-15T00:29:48.896Z,85.51
2018-06-15T00:30:29.327Z,85.71
2018-06-15T00:31:09.691Z,86.38
2018-06-15T00:31:50.090Z,86.09
2018-06-15T00:32:30.565Z,86.09
2018-06-15T00:33:10.882Z,86.09
2018-06-15T00:33:51.316Z,86.57
2018-06-15T00:34:31.713Z,86.47
2018-06-15T00:35:12.128Z,86.76
2018-06-15T00:35:52.518Z,86.47
2018-06-15T00:36:32.879Z,86.18
2018-06-15T00:37:13.308Z,86.18
2018-06-15T00:37:53.745Z,86.09
2018-06-15T00:38:34.131Z,85.61
2018-06-15T00:39:14.541Z,85.51
2018-06-15T00:39:54.967Z,84.94
2018-06-15T00:40:35.382Z,84.84
2018-06-15T00:41:15.757Z,84.84
2018-06-15T00:41:56.197Z,84.55
2018-06-15T00:42:36.665Z,84.55
2018-06-15T00:43:17.035Z,84.07
2018-06-15T00:43:57.468Z,83.87
2018-06-15T00:44:37.861Z,84.3
2018-06-15T00:45:18.222Z,83.63
2018-06-15T00:45:58.663Z,83.92
2018-06-15T00:46:39.096Z,83.92
2018-06-15T00:47:19.476Z,83.83
2018-06-15T00:47:59.854Z,83.92
2018-06-15T00:48:40.240Z,84.21
2018-06-15T00:49:20.682Z,83.92
2018-06-15T00:50:01.111Z,84.5
2018-06-15T00:50:41.423Z,84.17
2018-06-15T00:51:21.807Z,84.01
2018-06-15T00:52:02.248Z,84.26
2018-06-15T00:52:42.590Z,83.83
2018-06-15T00:53:23.021Z,83.83
2018-06-15T00:54:03.423Z,83.73
2018-06-15T00:54:43.831Z,83.34
2018-06-15T00:55:24.276Z,83.34
2018-06-15T00:56:04.681Z,83.44
2018-06-15T00:56:45.093Z,82.76
2018-06-15T00:57:25.491Z,83.25
2018-06-15T00:58:05.872Z,82.67
2018-06-15T00:58:46.247Z,82.86
2018-06-15T00:59:26.662Z,82.76
2018-06-15T01:00:07.077Z,81.9
2018-06-15T01:00:47.467Z,82.09
2018-06-15T01:01:27.930Z,82.29
2018-06-15T01:02:08.305Z,82.29
2018-06-15T01:02:48.739Z,82.29
2018-06-15T01:03:29.155Z,82.19
2018-06-15T01:04:09.513Z,82.29
2018-06-15T01:04:49.917Z,82.32
2018-06-15T01:05:30.364Z,82.19
2018-06-15T01:06:10.733Z,82.29
2018-06-15T01:06:51.119Z,82.09
2018-06-15T01:07:31.547Z,82.57
2018-06-15T01:08:11.953Z,82.38
2018-06-15T01:08:52.329Z,82.09
2018-06-15T01:09:32.730Z,82.29
2018-06-15T01:10:13.144Z,81.99
2018-06-15T01:10:53.533Z,82.38
2018-06-15T01:11:33.978Z,83.06
2018-06-15T01:12:14.340Z,82.19
2018-06-15T01:12:54.757Z,82.29
2018-06-15T01:13:35.125Z,82.29
2018-06-15T01:14:15.515Z,81.81
2018-06-15T01:14:55.948Z,82.57
2018-06-15T01:15:36.321Z,81.9
2018-06-15T01:16:16.733Z,82.29
2018-06-15T01:16:57.107Z,82.19
2018-06-15T01:17:37.511Z,81.99
2018-06-15T01:18:17.922Z,82.19
2018-06-15T01:18:58.326Z,82.67
2018-06-15T01:19:38.715Z,82.96
2018-06-15T01:20:19.096Z,81.99
2018-06-15T01:20:59.507Z,81.99
2018-06-15T01:21:39.865Z,82.48
2018-06-15T01:22:20.263Z,82.19
2018-06-15T01:23:00.669Z,82.57
2018-06-15T01:23:41.080Z,82.57
2018-06-15T01:24:21.535Z,82.76
2018-06-15T01:25:01.909Z,82.76
2018-06-15T01:25:42.343Z,82.86
2018-06-15T01:26:22.725Z,83.25
2018-06-15T01:27:03.115Z,82.86
2018-06-15T01:27:43.477Z,83.25
2018-06-15T01:28:23.920Z,83.73
2018-06-15T01:29:04.310Z,84.11
2018-06-15T01:29:44.725Z,83.83
2018-06-15T01:30:25.137Z,83.73
2018-06-15T01:31:05.538Z,83.83
2018-06-15T01:31:45.970Z,83.83
2018-06-15T01:32:26.361Z,83.92
2018-06-15T01:33:06.834Z,84.4
2018-06-15T01:33:47.202Z,84.4
2018-06-15T01:34:27.592Z,83.92
2018-06-15T01:35:08.033Z,83.83
2018-06-15T01:35:48.371Z,83.63
2018-06-15T01:36:28.804Z,83.63
2018-06-15T01:37:09.184Z,83.44
2018-06-15T01:37:49.589Z,83.83
2018-06-15T01:38:30.016Z,83.06
2018-06-15T01:39:10.353Z,83.25
2018-06-15T01:39:50.804Z,83.25
2018-06-15T01:40:31.168Z,82.76
2018-06-15T01:41:11.542Z,82.57
2018-06-15T01:41:51.953Z,83.06
2018-06-15T01:42:32.289Z,82.96
2018-06-15T01:43:12.686Z,82.86
2018-06-15T01:43:53.137Z,82.76
2018-06-15T01:44:33.478Z,82.96
2018-06-15T01:45:13.903Z,83.06
2018-06-15T01:45:54.294Z,83.34
2018-06-15T01:46:34.669Z,83.25
2018-06-15T01:47:15.114Z,83.25
2018-06-15T01:47:55.483Z,83.25
2018-06-15T01:48:35.934Z,83.34
2018-06-15T01:49:16.324Z,83.25
2018-06-15T01:49:56.744Z,83.06
2018-06-15T01:50:37.198Z,83.25
2018-06-15T01:51:17.596Z,83.83
2018-06-15T01:51:57.975Z,83.63
2018-06-15T01:52:38.397Z,83.44
2018-06-15T01:53:18.759Z,83.92
2018-06-15T01:53:59.195Z,84.5
2018-06-15T01:54:39.615Z,84.01
2018-06-15T01:55:19.959Z,84.11
2018-06-15T01:56:00.439Z,83.92
2018-06-15T01:56:40.838Z,83.92
2018-06-15T01:57:21.295Z,84.64
2018-06-15T01:58:01.656Z,85.07
2018-06-15T01:58:42.090Z,84.64
2018-06-15T01:59:22.457Z,84.84
2018-06-15T02:00:02.867Z,84.74
2018-06-15T02:00:43.246Z,84.84
2018-06-15T02:01:23.774Z,84.94
2018-06-15T02:02:04.074Z,85.61
2018-06-15T02:02:44.502Z,85.71
2018-06-15T02:03:24.875Z,85.61
2018-06-15T02:04:05.283Z,85.89
2018-06-15T02:04:45.653Z,85.71
2018-06-15T02:05:26.051Z,86.09
2018-06-15T02:06:06.440Z,86.38
2018-06-15T02:06:46.796Z,86.38
2018-06-15T02:07:27.219Z,86.28
2018-06-15T02:08:07.634Z,86.18
2018-06-15T02:08:48.041Z,86.18
2018-06-15T02:09:28.418Z,87.05
2018-06-15T02:10:08.884Z,87.24
2018-06-15T02:10:49.236Z,86.95
2018-06-15T02:11:29.741Z,86.85
2018-06-15T02:12:10.065Z,87.05
2018-06-15T02:12:50.519Z,86.95
2018-06-15T02:13:30.960Z,86.85
2018-06-15T02:14:11.251Z,86.76
2018-06-15T02:14:51.662Z,86.85
2018-06-15T02:15:32.061Z,86.95
2018-06-15T02:16:12.512Z,87.01
2018-06-15T02:16:52.860Z,87.29
2018-06-15T02:17:33.202Z,87.19
2018-06-15T02:18:13.661Z,87.1
2018-06-15T02:18:54.013Z,87.49
2018-06-15T02:19:34.448Z,87.39
2018-06-15T02:20:14.819Z,87.87
2018-06-15T02:20:55.248Z,88.06
2018-06-15T02:21:35.674Z,87.96
2018-06-15T02:22:16.050Z,87.87
2018-06-15T02:22:56.472Z,87.68
2018-06-15T02:23:36.846Z,87.58
2018-06-15T02:24:17.257Z,88.06
2018-06-15T02:24:57.688Z,87.87
2018-06-15T02:25:38.073Z,87.68
2018-06-15T02:26:18.486Z,88.35
2018-06-15T02:26:58.892Z,87.68
2018-06-15T02:27:39.298Z,88.54
2018-06-15T02:28:19.687Z,88.54
2018-06-15T02:29:00.135Z,87.77
2018-06-15T02:29:40.536Z,88.35
2018-06-15T02:30:20.947Z,87.87
2018-06-15T02:31:01.288Z,88.35
2018-06-15T02:31:41.734Z,88.06
2018-06-15T02:32:22.096Z,88.16
2018-06-15T02:33:02.516Z,87.87
2018-06-15T02:33:42.922Z,88.35
2018-06-15T02:34:23.318Z,88.06
2018-06-15T02:35:03.768Z,88.73
2018-06-15T02:35:44.183Z,88.35
2018-06-15T02:36:24.590Z,88.35
2018-06-15T02:37:04.964Z,88.93
2018-06-15T02:37:45.365Z,88.64
2018-06-15T02:38:25.760Z,89.31
2018-06-15T02:39:06.152Z,88.93
2018-06-15T02:39:46.581Z,89.69
2018-06-15T02:40:26.985Z,89.4
2018-06-15T02:41:07.370Z,89.5
2018-06-15T02:41:47.756Z,89.4
2018-06-15T02:42:28.161Z,89.4
2018-06-15T02:43:08.502Z,89.69
2018-06-15T02:43:48.951Z,89.4
2018-06-15T02:44:29.312Z,89.6
2018-06-15T02:45:09.789Z,89.4
2018-06-15T02:45:50.148Z,89.6
2018-06-15T02:46:30.541Z,89.6
2018-06-15T02:47:10.996Z,89.5
2018-06-15T02:47:51.334Z,89.02
2018-06-15T02:48:31.757Z,89.69
2018-06-15T02:49:12.191Z,89.31
2018-06-15T02:49:52.574Z,88.93
2018-06-15T02:50:33.039Z,89.02
2018-06-15T02:51:13.440Z,89.22
2018-06-15T02:51:53.842Z,89.22
2018-06-15T02:52:34.222Z,88.64
2018-06-15T02:53:14.679Z,88.06
2018-06-15T02:53:55.089Z,88.25
2018-06-15T02:54:35.456Z,88.06
2018-06-15T02:55:15.869Z,87.77
2018-06-15T02:55:56.264Z,88.16
2018-06-15T02:56:36.662Z,87.87
2018-06-15T02:57:17.068Z,87.68
2018-06-15T02:57:57.470Z,87.87
2018-06-15T02:58:37.905Z,88.06
2018-06-15T02:59:18.278Z,88.06
2018-06-15T02:59:58.673Z,87.68
2018-06-15T03:00:39.091Z,87.96
2018-06-15T03:01:19.451Z,87.96
2018-06-15T03:01:59.866Z,88.35
2018-06-15T03:02:40.270Z,88.35
2018-06-15T03:03:20.692Z,88.45
2018-06-15T03:04:01.094Z,88.54
2018-06-15T03:04:41.493Z,88.45
2018-06-15T03:05:21.853Z,88.54
2018-06-15T03:06:02.285Z,88.45
2018-06-15T03:06:42.678Z,88.45
2018-06-15T03:07:23.133Z,88.35
2018-06-15T03:08:03.506Z,88.35
2018-06-15T03:08:43.862Z,88.83
2018-06-15T03:09:24.269Z,88.83
2018-06-15T03:10:04.731Z,89.02
2018-06-15T03:10:45.149Z,88.93
2018-06-15T03:11:25.556Z,89.12
2018-06-15T03:12:05.945Z,89.12
2018-06-15T03:12:46.391Z,89.22
2018-06-15T03:13:26.768Z,88.93
2018-06-15T03:14:07.140Z,88.83
2018-06-15T03:14:47.522Z,89.12
2018-06-15T03:15:27.932Z,89.02
2018-06-15T03:16:08.308Z,89.12
2018-06-15T03:16:48.749Z,88.93
2018-06-15T03:17:29.160Z,88.73
2018-06-15T03:18:09.582Z,88.73
2018-06-15T03:18:49.917Z,89.12
2018-06-15T03:19:30.326Z,88.25
2018-06-15T03:20:10.756Z,87.96
2018-06-15T03:20:51.108Z,88.06
2018-06-15T03:21:31.489Z,87.87
2018-06-15T03:22:11.918Z,87.96
2018-06-15T03:22:52.271Z,88.2
2018-06-15T03:23:32.694Z,88.01
2018-06-15T03:24:13.106Z,87.53
2018-06-15T03:24:53.505Z,88.3
2018-06-15T03:25:33.959Z,88.2
2018-06-15T03:26:14.357Z,87.24
2018-06-15T03:26:54.777Z,87.43
2018-06-15T03:27:35.181Z,87.34
2018-06-15T03:28:15.608Z,87.43
2018-06-15T03:28:55.975Z,87.34
2018-06-15T03:29:36.385Z,87.43
2018-06-15T03:30:16.850Z,87.62
2018-06-15T03:30:57.240Z,87.92
2018-06-15T03:31:37.632Z,87.82
2018-06-15T03:32:18.098Z,88.1
2018-06-15T03:32:58.451Z,87.92
2018-06-15T03:33:38.883Z,88.01
2018-06-15T03:34:19.287Z,87.34
2018-06-15T03:34:59.688Z,87.43
2018-06-15T03:35:40.106Z,87.53
2018-06-15T03:36:20.532Z,87.15
2018-06-15T03:37:00.918Z,87.62
2018-06-15T03:37:41.385Z,87.43
2018-06-15T03:38:21.726Z,87.62
2018-06-15T03:39:02.109Z,87.43
2018-06-15T03:39:42.488Z,87.34
2018-06-15T03:40:22.949Z,87.34
2018-06-15T03:41:03.296Z,87.24
2018-06-15T03:41:43.725Z,87.24
2018-06-15T03:42:24.102Z,87.24
2018-06-15T03:43:04.505Z,87.43
2018-06-15T03:43:44.937Z,87.62
2018-06-15T03:44:25.327Z,87.43
2018-06-15T03:45:05.692Z,87.53
2018-06-15T03:45:46.062Z,87.53
2018-06-15T03:46:26.466Z,87.43
2018-06-15T03:47:06.889Z,87.43
2018-06-15T03:47:47.278Z,87.34
2018-06-15T03:48:27.693Z,87.53
2018-06-15T03:49:08.079Z,88.3
2018-06-15T03:49:48.538Z,87.34
2018-06-15T03:50:28.934Z,88.1
2018-06-15T03:51:09.284Z,87.24
2018-06-15T03:51:49.718Z,87.53
2018-06-15T03:52:30.098Z,87.53
2018-06-15T03:53:10.475Z,87.34
2018-06-15T03:53:50.921Z,87.15
2018-06-15T03:54:31.271Z,87.53
2018-06-15T03:55:11.724Z,86.66
2018-06-15T03:55:52.119Z,87.15
2018-06-15T03:56:32.528Z,87.24
2018-06-15T03:57:12.939Z,87.24
2018-06-15T03:57:53.352Z,86.85
2018-06-15T03:58:33.798Z,87.15
2018-06-15T03:59:14.215Z,87.05
2018-06-15T03:59:54.670Z,87.43
2018-06-15T04:00:35.068Z,87.15
2018-06-15T04:01:15.440Z,87.15
2018-06-15T04:01:55.838Z,87.34
2018-06-15T04:02:36.242Z,87.43
2018-06-15T04:03:16.666Z,87.15
2018-06-15T04:03:57.069Z,87.34
2018-06-15T04:48:04.348Z,97.52
2018-06-15T04:48:44.666Z,97.61
2018-06-15T04:49:25.053Z,97.42
2018-06-15T04:50:05.396Z,97.61
2018-06-15T04:50:45.845Z,97.61
2018-06-15T04:51:26.220Z,98.05
2018-06-15T04:52:06.621Z,97.42
2018-06-15T04:52:47.105Z,97.66
2018-06-15T04:53:27.509Z,97.56
2018-06-15T04:54:07.870Z,97.47
2018-06-15T04:54:48.259Z,97.95
2018-06-15T04:55:28.742Z,97.56
2018-06-15T04:56:09.139Z,96.42
2018-06-15T04:56:49.502Z,96.22
2018-06-15T04:57:29.920Z,95.75
2018-06-15T04:58:10.308Z,95.6
2018-06-15T04:58:50.739Z,95.21
2018-06-15T04:59:31.091Z,94.74
2018-06-15T05:00:11.515Z,94.16
2018-06-15T05:00:51.932Z,93.97
2018-06-15T05:01:32.354Z,93.97
2018-06-15T05:02:12.763Z,93.49
2018-06-15T05:02:53.179Z,93.2
2018-06-15T05:03:33.635Z,92.82
2018-06-15T05:04:14.030Z,92.43
2018-06-15T05:04:54.437Z,92.57
2018-06-15T05:05:34.858Z,92.67
2018-06-15T05:06:15.347Z,92.48
2018-06-15T05:06:55.633Z,92.63
2018-06-15T05:07:36.102Z,92
2018-06-15T05:08:16.477Z,92
2018-06-15T05:08:56.909Z,92.29
2018-06-15T05:09:37.304Z,92
2018-06-15T05:10:17.709Z,92.1
2018-06-15T05:10:58.113Z,92.19
2018-06-15T05:11:38.532Z,91.81
2018-06-15T05:12:19.066Z,92
2018-06-15T05:12:59.447Z,91.23
2018-06-15T05:13:40.095Z,90.51
2018-06-15T05:14:20.526Z,90.12
2018-06-15T05:15:00.946Z,90.12
2018-06-15T05:15:41.352Z,89.64
2018-06-15T05:16:23.070Z,89.16
2018-06-15T05:17:03.518Z,88.78
2018-06-15T05:17:44.010Z,88.97
2018-06-15T05:18:24.494Z,88.1
2018-06-15T05:19:04.907Z,88.01
2018-06-15T05:19:45.268Z,87.67
2018-06-15T05:20:25.715Z,88.3
2018-06-15T05:21:06.102Z,87.86
2018-06-15T05:21:46.498Z,87.76
2018-06-15T05:22:26.957Z,87.48
2018-06-15T05:23:07.559Z,86.99
2018-06-15T05:23:47.911Z,86.99
2018-06-15T05:24:28.338Z,86.32
2018-06-15T05:25:08.792Z,86.42
2018-06-15T05:25:49.286Z,85.98
2018-06-15T05:26:29.657Z,84.63
2018-06-15T05:27:10.087Z,85.02
2018-06-15T05:27:50.574Z,84
2018-06-15T05:28:30.971Z,84.1
2018-06-15T05:29:11.432Z,83.14
2018-06-15T05:29:51.900Z,82.85
2018-06-15T05:30:32.316Z,82.85
2018-06-15T05:31:12.730Z,82.17
2018-06-15T05:31:53.140Z,82.27
2018-06-15T05:32:33.617Z,81.98
2018-06-15T05:33:13.964Z,81.83
2018-06-15T05:33:54.361Z,82.02
2018-06-15T05:34:34.822Z,81.06
2018-06-15T05:35:15.173Z,80
2018-06-15T05:35:55.622Z,80.38
2018-06-15T05:36:36.076Z,80.1
2018-06-15T05:37:16.469Z,80
2018-06-15T05:37:56.873Z,79.33
2018-06-15T05:38:37.440Z,79.23
2018-06-15T05:39:17.871Z,79.03
2018-06-15T05:39:58.289Z,78.56
2018-06-15T05:40:38.684Z,78.69
2018-06-15T05:41:19.162Z,78.21
2018-06-15T05:41:59.543Z,77.92
2018-06-15T05:42:40.906Z,77.73
2018-06-15T05:43:21.245Z,77.44
2018-06-15T05:44:01.651Z,77.19
2018-06-15T05:44:42.135Z,76.42
2018-06-15T05:45:22.504Z,76.42
2018-06-15T05:46:02.975Z,75.84
2018-06-15T05:46:43.493Z,75.36
2018-06-15T05:47:23.944Z,75.26
2018-06-15T05:48:05.101Z,75.55
2018-06-15T05:48:46.117Z,75.07
2018-06-15T05:49:26.436Z,74.68
2018-06-15T05:50:06.869Z,74.3
2018-06-15T05:50:47.280Z,75.3
2018-06-15T05:51:27.664Z,75.1
2018-06-15T05:52:08.139Z,75.01
2018-06-15T05:52:48.486Z,74.62
2018-06-15T05:53:28.984Z,74.33
2018-06-15T05:54:09.385Z,73.31
2018-06-15T05:54:49.810Z,72.63
2018-06-15T05:55:30.198Z,71.61
2018-06-15T05:56:10.657Z,71.22
2018-06-15T05:56:51.607Z,71.45
2018-06-15T05:57:31.707Z,70.1
2018-06-15T05:58:12.093Z,69.36
2018-06-15T05:58:52.585Z,68.88
2018-06-15T05:59:32.993Z,68.62
2018-06-15T06:00:13.435Z,66.88
2018-06-15T06:00:53.869Z,66.63
2018-06-15T06:01:34.582Z,66.43
2018-06-15T06:02:14.999Z,65.95
2018-06-15T06:02:55.414Z,65.66
2018-06-15T06:03:35.846Z,65.17
2018-06-15T06:04:16.228Z,65.2
2018-06-15T06:04:56.811Z,64.72
2018-06-15T06:05:37.301Z,64.72
2018-06-15T06:06:17.834Z,64.72
2018-06-15T06:06:59.205Z,65.2
2018-06-15T06:07:38.830Z,64.62
2018-06-15T06:08:19.268Z,63.95
2018-06-15T06:08:59.721Z,64.04
2018-06-15T06:09:40.151Z,64.24
2018-06-15T06:10:20.588Z,63.85
2018-06-15T06:11:01.008Z,64.04
2018-06-15T06:11:48.290Z,64.04
2018-06-15T06:12:28.746Z,63.95
2018-06-15T06:13:23.994Z,64.72
2018-06-15T06:16:31.909Z,64.72
2018-06-15T06:17:12.179Z,64.04
2018-06-15T06:17:52.807Z,62.98
2018-06-15T06:18:33.707Z,63.27
2018-06-15T06:19:14.162Z,62.98
2018-06-15T06:19:54.537Z,62.34
2018-06-15T06:20:34.936Z,62.88
2018-06-15T06:21:15.403Z,63.85
2018-06-15T06:21:55.785Z,63.08
2018-06-15T06:22:36.140Z,62.92
2018-06-15T06:23:16.546Z,63.27
2018-06-15T06:23:56.983Z,63.31
2018-06-15T06:24:37.353Z,62.92
2018-06-15T06:25:17.769Z,62.5
2018-06-15T06:25:58.188Z,62.82
2018-06-15T06:26:38.581Z,62.72
2018-06-15T06:27:18.994Z,62.59
2018-06-15T06:27:59.414Z,61.63
2018-06-15T06:28:39.866Z,62.5
2018-06-15T06:29:20.233Z,63.08
2018-06-15T06:30:00.647Z,63.46
2018-06-15T06:30:41.109Z,63.43
2018-06-15T06:31:21.464Z,63.14
2018-06-15T06:32:01.964Z,63.53
2018-06-15T06:32:42.446Z,63.24
2018-06-15T06:33:22.775Z,63.43
2018-06-15T06:34:03.190Z,63.63
2018-06-15T06:34:43.636Z,63.56
2018-06-15T06:35:24.068Z,63.37
2018-06-15T06:36:04.522Z,63.37
2018-06-15T06:36:44.904Z,63.37
2018-06-15T06:37:25.631Z,63.27
2018-06-15T06:39:43.706Z,63.27
2018-06-15T06:42:35.471Z,63.18
2018-06-15T06:43:29.562Z,63.08
2018-06-15T06:44:09.951Z,63.46
2018-06-15T06:44:50.321Z,63.14
2018-06-15T06:45:30.724Z,62.5
2018-06-15T06:46:11.162Z,61.69
2018-06-15T06:46:51.562Z,61.6
2018-06-15T06:47:31.936Z,61.89
2018-06-15T06:48:12.350Z,62.76
2018-06-15T06:48:52.809Z,63.14
2018-06-15T06:49:33.226Z,62.47
2018-06-15T06:50:13.609Z,63.43
2018-06-15T06:51:08.764Z,63.73
2018-06-15T06:51:49.212Z,63.34
2018-06-15T06:52:29.639Z,63.14
2018-06-15T06:53:10.048Z,63.05
2018-06-15T06:53:50.456Z,63.63
2018-06-15T06:54:49.240Z,63.24
2018-06-15T06:55:44.777Z,63.53
2018-06-15T06:56:25.185Z,63.43
2018-06-15T06:57:05.604Z,64.11
2018-06-15T06:57:46.008Z,64.4
2018-06-15T06:58:26.409Z,64.5
2018-06-15T06:59:21.414Z,64.21
2018-06-15T07:01:34.509Z,63.53
2018-06-15T07:02:15.856Z,63.34
2018-06-15T07:02:56.331Z,63.73
2018-06-15T07:05:48.114Z,63.66
2018-06-15T07:06:39.077Z,63.85
2018-06-15T07:07:19.488Z,63.08
2018-06-15T07:07:59.875Z,63.18
2018-06-15T07:08:40.264Z,63.18
2018-06-15T07:09:20.774Z,63.56
2018-06-15T07:10:01.115Z,63.08
2018-06-15T07:10:41.577Z,63.18
2018-06-15T07:11:22.006Z,63.56
2018-06-15T07:12:02.415Z,63.37
2018-06-15T07:12:42.960Z,62.69
2018-06-15T07:14:56.082Z,62.01
2018-06-15T07:15:36.426Z,62.59
2018-06-15T07:16:16.856Z,61.63
2018-06-15T07:16:57.272Z,60.95
2018-06-15T07:17:37.672Z,61.43
2018-06-15T07:18:18.096Z,60.75
2018-06-15T07:18:58.522Z,60.88
2018-06-15T07:19:53.654Z,61.15
2018-06-15T07:20:34.009Z,61.46
2018-06-15T07:21:14.469Z,61.33
2018-06-15T07:21:54.902Z,61.46
2018-06-15T07:22:36.223Z,61.56
2018-06-15T07:23:30.885Z,61.56
2018-06-15T07:26:06.071Z,61.08
2018-06-15T07:27:01.208Z,60.78
2018-06-15T07:27:41.607Z,60.5
2018-06-15T07:31:17.755Z,59.27
2018-06-15T07:31:58.118Z,58.81
2018-06-15T07:32:38.498Z,58.42
2018-06-15T07:33:18.920Z,57.84
2018-06-15T07:33:59.325Z,57.87
2018-06-15T07:34:39.758Z,57.39
2018-06-15T07:35:20.148Z,57
2018-06-15T07:36:00.763Z,57.39
2018-06-15T07:36:41.266Z,57.29
2018-06-15T07:37:21.650Z,57.19
2018-06-15T07:38:02.095Z,56.71
2018-06-15T07:38:42.473Z,57
2018-06-15T07:39:22.914Z,56.93
2018-06-15T07:40:03.319Z,56.51
2018-06-15T07:40:43.798Z,56.15
2018-06-15T07:41:24.142Z,55.47
2018-06-15T07:42:04.552Z,55.96
2018-06-15T07:42:45.020Z,55.18
2018-06-15T07:43:25.440Z,55.21
2018-06-15T07:44:05.846Z,54.53
2018-06-15T07:44:46.304Z,54.34
2018-06-15T07:45:27.004Z,53.56
2018-06-15T07:46:07.359Z,52.98
2018-06-15T07:46:47.733Z,53.2
2018-06-15T07:47:28.103Z,53.2
2018-06-15T07:48:08.828Z,53
2018-06-15T07:48:49.223Z,53
2018-06-15T07:49:29.650Z,52.64
2018-06-15T07:50:10.214Z,51.97
2018-06-15T07:50:50.675Z,52.45
2018-06-15T07:51:31.096Z,51.99
2018-06-15T07:52:11.830Z,51.31
2018-06-15T07:52:52.194Z,50.82
2018-06-15T07:53:33.070Z,50.75
2018-06-15T07:54:13.666Z,49.68
2018-06-15T07:54:54.203Z,49.39
2018-06-15T07:55:34.679Z,49.37
2018-06-15T07:56:15.044Z,49.56
2018-06-15T07:56:55.483Z,49.76
2018-06-15T07:57:36.022Z,50.21
2018-06-15T07:58:16.444Z,51.16
2018-06-15T07:58:56.838Z,51.35
2018-06-15T07:59:37.226Z,52.4
2018-06-15T08:00:17.620Z,52.88
2018-06-15T08:00:58.094Z,52.88
2018-06-15T08:01:38.522Z,52.98
2018-06-15T08:02:18.920Z,53.08
2018-06-15T08:02:59.292Z,53.2
2018-06-15T08:03:39.758Z,52.3
2018-06-15T08:04:20.187Z,50.96
2018-06-15T08:05:00.582Z,51.18
2018-06-15T08:05:41.495Z,51.38
2018-06-15T08:06:22.092Z,50.99
2018-06-15T08:07:02.679Z,50.53
2018-06-15T08:07:43.228Z,49.97
2018-06-15T08:08:23.719Z,48.71
2018-06-15T08:09:04.130Z,47.66
2018-06-15T08:09:45.254Z,46.88
2018-06-15T08:10:25.238Z,47.3
2018-06-15T08:11:05.663Z,46.91
2018-06-15T08:11:46.064Z,46.61
2018-06-15T08:12:26.523Z,46.73
2018-06-15T08:13:07.006Z,47.22
2018-06-15T08:13:48.274Z,46.17
2018-06-15T08:14:28.270Z,45.78
2018-06-15T08:16:44.559Z,44.81
2018-06-15T08:17:25.398Z,44.42
2018-06-15T08:18:07.825Z,44.23
2018-06-15T08:18:47.979Z,44.81
2018-06-15T08:19:28.535Z,45.57
2018-06-15T08:20:08.836Z,45.67
2018-06-15T08:20:49.266Z,45.37
2018-06-15T08:21:29.702Z,45.94
2018-06-15T08:22:10.124Z,45.32
2018-06-15T08:22:50.589Z,46.2
2018-06-15T08:23:31.040Z,46.4
2018-06-15T08:24:11.477Z,46.11
2018-06-15T08:24:51.961Z,46.59
2018-06-15T08:25:32.357Z,46.96
2018-06-15T08:26:12.808Z,46.98
2018-06-15T08:26:53.165Z,46.98
2018-06-15T08:27:33.583Z,45.79
2018-06-15T08:28:14.113Z,46.08
2018-06-15T08:28:54.611Z,46.28
2018-06-15T08:29:35.737Z,46.08
2018-06-15T08:30:16.195Z,45.79
2018-06-15T08:30:57.458Z,45.69
2018-06-15T08:31:37.968Z,45.5
2018-06-15T08:32:18.361Z,45.89
2018-06-15T08:32:58.867Z,47.05
2018-06-15T08:33:40.610Z,45.69
2018-06-15T08:34:21.186Z,44.12
2018-06-15T08:35:01.763Z,45.28
2018-06-15T08:35:43.111Z,45.38
2018-06-15T08:36:22.952Z,45.48
2018-06-15T08:37:04.195Z,46.14
2018-06-15T08:37:44.665Z,46.23
2018-06-15T08:38:25.095Z,45.94
2018-06-15T08:39:05.661Z,46.72
2018-06-15T08:39:46.040Z,47.3
2018-06-15T08:40:26.403Z,47.52
2018-06-15T08:41:06.832Z,48.03
2018-06-15T08:41:47.375Z,47.74
2018-06-15T08:42:27.949Z,47.17
2018-06-15T08:43:08.658Z,46.01
2018-06-15T08:44:57.677Z,46.3
2018-06-15T08:45:38.020Z,45.91
2018-06-15T08:46:18.541Z,46.57
2018-06-15T08:46:58.879Z,46.77
2018-06-15T08:47:39.287Z,47.25
2018-06-15T08:48:20.125Z,46.96
2018-06-15T08:49:00.216Z,45.79
2018-06-15T08:49:40.598Z,45.6
2018-06-15T08:50:21.137Z,45.31
2018-06-15T08:51:01.529Z,44.43
2018-06-15T08:51:42.014Z,43.26
2018-06-15T08:53:54.990Z,43.48
2018-06-15T08:54:35.358Z,43.87
2018-06-15T08:55:15.757Z,42.8
2018-06-15T08:55:56.191Z,42.11
2018-06-15T08:56:36.607Z,42.41
2018-06-15T08:57:16.997Z,40.48
2018-06-15T08:57:57.441Z,40
2018-06-15T08:58:37.783Z,40.7
2018-06-15T08:59:33.126Z,41.77
2018-06-15T09:00:13.645Z,41.5
2018-06-15T09:00:54.016Z,40.73
2018-06-15T09:02:41.804Z,39.76
2018-06-15T09:03:22.159Z,39.55
2018-06-15T09:04:02.922Z,39.7
2018-06-15T09:04:43.357Z,40.56
2018-06-15T09:05:24.009Z,41.83
2018-06-15T09:06:05.062Z,41.8
2018-06-15T09:06:45.053Z,43.16
2018-06-15T09:07:25.455Z,42.1
2018-06-15T09:08:05.975Z,43.46
2018-06-15T09:08:46.321Z,43.36
2018-06-15T09:09:26.720Z,43.26
2018-06-15T09:10:07.225Z,44.62
2018-06-15T09:10:47.847Z,45.4
2018-06-15T09:11:28.346Z,45.4
2018-06-15T09:12:08.747Z,44.72
2018-06-15T09:12:50.044Z,45.18
2018-06-15T09:13:29.965Z,45.67
2018-06-15T09:14:10.377Z,46.35
2018-06-15T09:14:50.871Z,47.01
2018-06-15T09:15:31.573Z,46.31
2018-06-15T09:16:12.006Z,47.18
2018-06-15T09:16:52.495Z,47.35
2018-06-15T09:17:33.160Z,48.59
2018-06-15T09:18:13.818Z,49.56
2018-06-15T09:18:54.830Z,48.78
2018-06-15T09:19:35.258Z,50.53
2018-06-15T09:20:15.643Z,50.04
2018-06-15T09:20:56.056Z,49.29
2018-06-15T09:21:36.527Z,47.83
2018-06-15T09:22:16.961Z,47.35
2018-06-15T09:22:57.304Z,47.55
2018-06-15T09:23:37.710Z,48.03
2018-06-15T09:24:18.140Z,48.52
2018-06-15T09:24:58.593Z,48.71
2018-06-15T09:25:39.011Z,48.61
2018-06-15T09:26:19.385Z,48.03
2018-06-15T09:27:00.259Z,49.02
2018-06-15T09:27:40.421Z,47.76
2018-06-15T09:28:20.828Z,46.89
2018-06-15T09:29:01.332Z,47.57
2018-06-15T09:29:41.712Z,46.81
2018-06-15T09:30:24.756Z,47.4
2018-06-15T09:31:05.151Z,46.94
2018-06-15T09:31:45.581Z,46.35
2018-06-15T09:32:26.001Z,45.5
2018-06-15T09:33:06.459Z,43.75
2018-06-15T09:34:00.677Z,42.97
2018-06-15T09:34:47.997Z,42
2018-06-15T09:35:52.041Z,43.26
2018-06-15T09:36:47.863Z,43.05
2018-06-15T09:37:33.362Z,44.02
2018-06-15T09:41:25.465Z,44.89
2018-06-15T09:45:20.461Z,43.04
2018-06-15T09:46:00.362Z,41.77
2018-06-15T09:46:46.996Z,41.86
2018-06-15T09:47:27.395Z,41.96
2018-06-15T09:48:07.870Z,42.5
2018-06-15T09:49:02.875Z,43.55
2018-06-15T09:49:51.761Z,42.76
2018-06-15T09:50:32.247Z,41.88
2018-06-15T09:51:24.342Z,43.24
2018-06-15T09:52:04.999Z,44.04
2018-06-15T09:53:00.268Z,43.46
2018-06-15T09:53:55.429Z,42.68
2018-06-15T09:55:05.538Z,41.53
2018-06-15T09:57:38.547Z,40.89
2018-06-15T09:58:33.820Z,40.62
2018-06-15T09:59:28.819Z,40.17
2018-06-15T10:00:09.234Z,38.14
2018-06-15T10:00:52.894Z,38.34
2018-06-15T10:01:33.349Z,37.65
2018-06-15T10:02:13.699Z,36.6
2018-06-15T10:02:54.102Z,37.55